createdAt,value
2023-01-13T00:01:31.272Z,0.93
2023-01-13T00:04:20.273Z,1.02
2023-01-13T00:07:02.489Z,1.10
2023-01-13T00:09:52.319Z,1.00
2023-01-13T00:12:34.527Z,0.60
2023-01-13T00:15:23.292Z,0.90
2023-01-13T00:18:05.551Z,1.10
2023-01-13T00:20:53.270Z,1.38
2023-01-13T00:23:36.578Z,1.00
2023-01-13T00:26:29.259Z,1.30
2023-01-13T00:29:11.515Z,1.55
2023-01-13T00:32:02.649Z,1.58
2023-01-13T00:34:51.349Z,1.45
2023-01-13T00:37:33.283Z,1.70
2023-01-13T00:40:23.275Z,1.98
2023-01-13T00:43:23.655Z,1.58
2023-01-13T00:46:12.375Z,1.92
2023-01-13T00:48:54.281Z,1.58
2023-01-13T00:51:43.298Z,2.22
2023-01-13T00:54:25.373Z,1.80
2023-01-13T00:57:14.279Z,1.73
2023-01-13T01:00:04.268Z,1.55
2023-01-13T01:02:46.515Z,2.03
2023-01-13T01:05:34.329Z,1.85
2023-01-13T01:08:16.535Z,2.00
2023-01-13T01:11:09.364Z,1.80
2023-01-13T01:13:53.018Z,1.20
2023-01-13T01:16:42.354Z,2.28
2023-01-13T01:19:24.646Z,1.90
2023-01-13T01:22:13.297Z,1.40
2023-01-13T01:24:55.725Z,1.48
2023-01-13T01:27:37.302Z,1.80
2023-01-13T01:30:26.291Z,1.52
2023-01-13T01:33:09.526Z,1.60
2023-01-13T01:35:58.294Z,1.42
2023-01-13T01:38:40.508Z,1.30
2023-01-13T01:41:31.394Z,1.75
2023-01-13T01:44:35.610Z,1.75
2023-01-13T01:47:26.299Z,1.10
2023-01-13T01:50:10.479Z,1.63
2023-01-13T01:53:02.299Z,1.13
2023-01-13T01:55:52.298Z,1.30
2023-01-13T01:58:41.730Z,1.98
2023-01-13T02:01:30.391Z,1.60
2023-01-13T02:04:16.300Z,1.30
2023-01-13T02:07:08.313Z,1.15
2023-01-13T02:09:50.724Z,1.40
2023-01-13T02:12:40.280Z,1.13
2023-01-13T02:15:24.342Z,1.27
2023-01-13T02:18:40.290Z,1.63
2023-01-13T02:22:11.399Z,1.65
2023-01-13T02:25:18.512Z,1.58
2023-01-13T02:28:21.311Z,1.50
2023-01-13T02:31:26.733Z,1.67
2023-01-13T02:34:18.397Z,1.30
2023-01-13T02:37:05.550Z,1.88
2023-01-13T02:39:59.324Z,1.90
2023-01-13T02:43:08.310Z,1.90
2023-01-13T02:45:54.503Z,2.00
2023-01-13T02:48:46.348Z,1.60
2023-01-13T02:51:45.303Z,1.80
2023-01-13T02:54:36.325Z,2.13
2023-01-13T02:57:19.659Z,2.03
2023-01-13T03:00:08.340Z,1.45
2023-01-13T03:02:57.357Z,1.30
2023-01-13T03:05:44.036Z,1.58
2023-01-13T03:08:46.401Z,1.42
2023-01-13T03:11:39.379Z,1.38
2023-01-13T03:14:33.504Z,1.25
2023-01-13T03:17:30.360Z,1.10
2023-01-13T03:20:16.572Z,1.10
2023-01-13T03:23:12.363Z,1.40
2023-01-13T03:26:00.543Z,1.58
2023-01-13T03:28:53.385Z,1.77
2023-01-13T03:31:46.343Z,1.48
2023-01-13T03:34:39.636Z,1.30
2023-01-13T03:37:24.340Z,1.25
2023-01-13T03:40:14.078Z,1.83
2023-01-13T03:43:23.326Z,1.30
2023-01-13T03:46:12.346Z,1.67
2023-01-13T03:49:04.332Z,1.35
2023-01-13T03:51:59.539Z,1.77
2023-01-13T03:54:47.331Z,1.50
2023-01-13T03:57:35.413Z,0.88
2023-01-13T04:00:27.374Z,0.93
2023-01-13T04:03:18.534Z,0.93
2023-01-13T04:06:07.563Z,1.42
2023-01-13T04:09:03.397Z,1.13
2023-01-13T04:11:50.501Z,1.52
2023-01-13T04:14:40.341Z,1.00
2023-01-13T04:17:24.706Z,1.00
2023-01-13T04:20:14.342Z,1.25
2023-01-13T04:22:56.506Z,1.15
2023-01-13T04:25:44.346Z,0.70
2023-01-13T04:28:27.520Z,0.90
2023-01-13T04:31:17.406Z,1.88
2023-01-13T04:34:06.371Z,1.02
2023-01-13T04:36:48.267Z,0.90
2023-01-13T04:39:37.394Z,1.70
2023-01-13T04:42:19.456Z,1.30
2023-01-13T04:45:08.390Z,1.33
2023-01-13T04:47:51.657Z,0.82
2023-01-13T04:50:41.347Z,1.08
2023-01-13T04:53:23.340Z,1.20
2023-01-13T04:56:12.370Z,0.88
2023-01-13T04:58:54.306Z,1.30
2023-01-13T05:01:36.461Z,1.27
2023-01-13T05:04:26.410Z,0.77
2023-01-13T05:07:08.218Z,1.02
2023-01-13T05:09:57.390Z,1.35
2023-01-13T05:12:56.835Z,0.80
2023-01-13T05:16:03.281Z,0.80
2023-01-13T05:18:46.375Z,0.85
2023-01-13T05:21:53.459Z,0.63
2023-01-13T05:24:59.370Z,0.77
2023-01-13T05:27:42.564Z,0.80
2023-01-13T05:30:33.454Z,1.30
2023-01-13T05:33:15.602Z,0.52
2023-01-13T05:36:03.363Z,0.80
2023-01-13T05:38:46.606Z,1.48
2023-01-13T05:41:52.377Z,1.00
2023-01-13T05:44:34.638Z,1.15
2023-01-13T05:47:22.377Z,0.90
2023-01-13T05:50:04.742Z,1.25
2023-01-13T05:52:53.372Z,1.20
2023-01-13T05:55:36.857Z,0.90
2023-01-13T05:58:26.396Z,0.70
2023-01-13T06:01:16.403Z,1.73
2023-01-13T06:03:58.320Z,0.82
2023-01-13T06:06:47.389Z,0.90
2023-01-13T06:09:29.293Z,1.60
2023-01-13T06:12:21.463Z,1.00
2023-01-13T06:15:03.487Z,1.77
2023-01-13T06:17:52.389Z,1.30
2023-01-13T06:20:34.425Z,1.85
2023-01-13T06:23:24.385Z,1.23
2023-01-13T06:26:13.339Z,1.13
2023-01-13T06:29:03.529Z,1.52
2023-01-13T06:31:52.422Z,3.10
2023-01-13T06:34:34.622Z,1.80
2023-01-13T06:37:26.389Z,1.50
2023-01-13T06:40:10.577Z,1.40
2023-01-13T06:43:18.407Z,1.38
2023-01-13T06:46:03.634Z,2.13
2023-01-13T06:48:51.402Z,2.28
2023-01-13T06:51:33.949Z,2.85
2023-01-13T06:54:21.431Z,2.53
2023-01-13T06:57:03.618Z,2.45
2023-01-13T06:59:51.426Z,2.00
2023-01-13T07:02:41.532Z,2.50
2023-01-13T07:05:24.072Z,1.88
2023-01-13T07:08:12.396Z,2.15
2023-01-13T07:10:54.458Z,2.38
2023-01-13T07:14:00.432Z,1.80
2023-01-13T07:16:44.531Z,1.98
2023-01-13T07:19:35.421Z,2.15
2023-01-13T07:22:17.405Z,2.00
2023-01-13T07:25:06.464Z,2.83
2023-01-13T07:27:55.406Z,1.67
2023-01-13T07:30:37.602Z,1.80
2023-01-13T07:33:26.498Z,2.70
2023-01-13T07:36:12.581Z,2.65
2023-01-13T07:39:00.445Z,2.30
2023-01-13T07:42:00.406Z,2.08
2023-01-13T07:44:48.507Z,2.22
2023-01-13T07:47:30.628Z,2.88
2023-01-13T07:50:19.567Z,2.47
2023-01-13T07:53:05.652Z,3.75
2023-01-13T07:55:53.434Z,2.10
2023-01-13T07:58:43.450Z,2.55
2023-01-13T08:01:27.536Z,2.05
2023-01-13T08:04:16.421Z,2.38
2023-01-13T08:06:58.457Z,2.65
2023-01-13T08:09:48.444Z,1.70
2023-01-13T08:12:54.521Z,2.03
2023-01-13T08:15:46.439Z,1.98
2023-01-13T08:18:34.472Z,2.47
2023-01-13T08:21:18.666Z,3.40
2023-01-13T08:24:06.482Z,2.53
2023-01-13T08:26:49.718Z,1.83
2023-01-13T08:29:38.444Z,2.17
2023-01-13T08:32:20.854Z,2.03
2023-01-13T08:35:08.442Z,2.10
2023-01-13T08:37:50.692Z,1.40
2023-01-13T08:40:39.457Z,1.67
2023-01-13T08:43:22.702Z,1.85
2023-01-13T08:46:11.517Z,2.15
2023-01-13T08:48:53.668Z,2.17
2023-01-13T08:51:42.542Z,2.67
2023-01-13T08:54:32.509Z,2.53
2023-01-13T08:57:15.234Z,2.25
2023-01-13T09:00:05.450Z,2.22
2023-01-13T09:02:47.459Z,2.45
2023-01-13T09:05:36.505Z,2.80
2023-01-13T09:08:18.555Z,1.58
2023-01-13T09:11:07.506Z,2.80
2023-01-13T09:13:48.358Z,2.40
2023-01-13T09:16:38.485Z,2.40
2023-01-13T09:19:20.398Z,2.50
2023-01-13T09:22:11.441Z,2.53
2023-01-13T09:25:06.515Z,2.55
2023-01-13T09:27:48.421Z,1.92
2023-01-13T09:30:37.484Z,1.83
2023-01-13T09:33:40.223Z,1.48
2023-01-13T09:36:28.467Z,2.30
2023-01-13T09:39:10.492Z,2.03
2023-01-13T09:42:19.606Z,1.90
2023-01-13T09:45:05.984Z,2.92
2023-01-13T09:48:02.500Z,1.90
2023-01-13T09:51:16.625Z,2.00
2023-01-13T09:54:03.997Z,1.90
2023-01-13T09:56:52.588Z,1.98
2023-01-13T09:59:36.839Z,1.98
2023-01-13T10:02:46.495Z,2.97
2023-01-13T10:05:36.871Z,2.70
2023-01-13T10:08:32.493Z,3.50
2023-01-13T10:11:42.529Z,1.83
2023-01-13T10:14:27.682Z,2.22
2023-01-13T10:17:26.530Z,1.98
2023-01-13T10:20:20.808Z,2.70
2023-01-13T10:23:17.567Z,2.20
2023-01-13T10:26:11.737Z,2.20
2023-01-13T10:29:00.465Z,2.28
2023-01-13T10:31:42.662Z,2.35
2023-01-13T10:34:31.544Z,2.10
2023-01-13T10:37:13.625Z,2.58
2023-01-13T10:40:03.465Z,2.65
2023-01-13T10:43:20.572Z,2.33
2023-01-13T10:46:12.570Z,2.33
2023-01-13T10:49:07.473Z,2.28
2023-01-13T10:52:03.558Z,2.50
2023-01-13T10:54:59.504Z,3.05
2023-01-13T10:57:44.685Z,2.92
2023-01-13T11:00:40.492Z,2.75
2023-01-13T11:03:28.940Z,2.80
2023-01-13T11:06:27.458Z,2.20
2023-01-13T11:09:09.720Z,3.47
2023-01-13T11:12:02.561Z,3.38
2023-01-13T11:14:48.832Z,2.60
2023-01-13T11:17:46.483Z,3.53
2023-01-13T11:20:33.768Z,2.55
2023-01-13T11:23:28.485Z,3.00
2023-01-13T11:26:23.487Z,2.20
2023-01-13T11:29:12.253Z,2.75
2023-01-13T11:32:06.491Z,2.50
2023-01-13T11:34:53.462Z,2.38
2023-01-13T11:37:45.474Z,2.30
2023-01-13T11:40:33.845Z,2.30
2023-01-13T11:43:31.568Z,2.25
2023-01-13T11:46:13.954Z,2.67
2023-01-13T11:49:02.474Z,2.65
2023-01-13T11:52:05.529Z,3.05
2023-01-13T11:55:24.496Z,2.65
2023-01-13T11:58:50.783Z,2.88
2023-01-13T12:01:56.351Z,2.42
2023-01-13T12:04:55.547Z,2.22
2023-01-13T12:07:45.251Z,2.63
2023-01-13T12:10:46.503Z,2.53
2023-01-13T12:13:40.749Z,2.55
2023-01-13T12:16:36.617Z,2.70
2023-01-13T12:19:25.556Z,3.72
2023-01-13T12:22:23.500Z,2.13
2023-01-13T12:25:17.524Z,2.15
2023-01-13T12:28:14.735Z,2.33
2023-01-13T12:31:07.507Z,2.67
2023-01-13T12:34:07.726Z,2.00
2023-01-13T12:37:05.490Z,2.55
2023-01-13T12:39:55.805Z,1.92
2023-01-13T12:43:11.495Z,2.92
2023-01-13T12:45:53.806Z,2.28
2023-01-13T12:49:13.564Z,2.50
2023-01-13T12:52:27.510Z,2.60
2023-01-13T12:55:18.528Z,1.98
2023-01-13T12:58:31.558Z,2.05
2023-01-13T13:01:15.864Z,2.17
2023-01-13T13:04:24.521Z,1.80
2023-01-13T13:07:09.769Z,2.08
2023-01-13T13:10:03.562Z,1.40
2023-01-13T13:13:17.228Z,1.70
2023-01-13T13:16:26.623Z,2.35
2023-01-13T13:19:53.525Z,2.10
2023-01-13T13:22:58.714Z,2.28
2023-01-13T13:26:08.585Z,2.28
2023-01-13T13:28:59.853Z,2.33
2023-01-13T13:32:10.696Z,1.73
2023-01-13T13:34:59.760Z,1.70
2023-01-13T13:38:19.763Z,2.20
2023-01-13T13:41:20.028Z,1.60
2023-01-13T13:44:28.535Z,1.90
2023-01-13T13:47:19.618Z,1.98
2023-01-13T13:50:09.034Z,1.88
2023-01-13T13:53:01.517Z,1.73
2023-01-13T13:56:01.612Z,3.13
2023-01-13T13:58:43.775Z,1.63
2023-01-13T14:01:34.702Z,2.63
2023-01-13T14:04:25.797Z,1.60
2023-01-13T14:07:24.521Z,2.17
2023-01-13T14:10:13.609Z,1.42
2023-01-13T14:12:55.457Z,1.65
2023-01-13T14:15:48.545Z,2.03
2023-01-13T14:18:33.684Z,1.38
2023-01-13T14:21:33.515Z,1.55
2023-01-13T14:24:17.596Z,2.15
2023-01-13T14:27:07.482Z,1.58
2023-01-13T14:29:50.020Z,1.88
2023-01-13T14:32:42.560Z,2.38
2023-01-13T14:35:24.567Z,1.77
2023-01-13T14:38:18.543Z,1.80
2023-01-13T14:41:18.231Z,2.40
2023-01-13T14:44:10.480Z,1.83
2023-01-13T14:47:00.545Z,2.80
2023-01-13T14:49:45.732Z,2.13
2023-01-13T14:52:35.517Z,1.67
2023-01-13T14:55:31.745Z,1.38
2023-01-13T14:58:34.526Z,1.25
2023-01-13T15:01:42.231Z,1.95
2023-01-13T15:04:34.484Z,2.35
2023-01-13T15:07:29.784Z,1.50
2023-01-13T15:10:24.469Z,1.73
2023-01-13T15:13:10.652Z,2.35
2023-01-13T15:16:00.570Z,1.85
2023-01-13T15:18:49.567Z,2.33
2023-01-13T15:21:31.477Z,1.38
2023-01-13T15:24:21.550Z,2.15
2023-01-13T15:27:07.552Z,1.80
2023-01-13T15:29:57.480Z,2.50
2023-01-13T15:32:39.800Z,1.80
2023-01-13T15:35:28.562Z,2.22
2023-01-13T15:38:12.631Z,1.60
2023-01-13T15:41:02.511Z,1.45
2023-01-13T15:44:02.113Z,1.65
2023-01-13T15:46:51.589Z,2.70
2023-01-13T15:49:37.591Z,1.67
2023-01-13T15:52:33.460Z,2.15
2023-01-13T15:55:21.507Z,2.25
2023-01-13T15:58:03.685Z,1.95
2023-01-13T16:00:51.614Z,1.77
2023-01-13T16:03:34.671Z,1.60
2023-01-13T16:06:25.487Z,1.85
2023-01-13T16:09:07.741Z,2.08
2023-01-13T16:11:55.549Z,2.33
2023-01-13T16:14:37.703Z,2.70
2023-01-13T16:17:27.572Z,1.40
2023-01-13T16:20:11.730Z,1.70
2023-01-13T16:23:00.510Z,1.98
2023-01-13T16:25:51.549Z,2.28
2023-01-13T16:28:35.794Z,2.80
2023-01-13T16:31:32.641Z,2.60
2023-01-13T16:34:14.444Z,2.30
2023-01-13T16:37:04.626Z,2.67
2023-01-13T16:39:46.669Z,2.05
2023-01-13T16:42:35.561Z,2.30
2023-01-13T16:45:17.683Z,1.85
2023-01-13T16:48:06.614Z,2.03
2023-01-13T16:50:48.765Z,3.75
2023-01-13T16:53:38.603Z,3.20
2023-01-13T16:56:35.591Z,2.90
2023-01-13T16:59:21.563Z,2.90
2023-01-13T17:02:11.668Z,2.17
2023-01-13T17:04:53.770Z,3.22
2023-01-13T17:07:41.605Z,3.05
2023-01-13T17:10:27.838Z,2.25
2023-01-13T17:13:17.422Z,3.42
2023-01-13T17:15:59.898Z,2.58
2023-01-13T17:18:48.264Z,2.72
2023-01-13T17:21:36.602Z,2.50
2023-01-13T17:24:19.178Z,3.47
2023-01-13T17:27:08.626Z,3.03
2023-01-13T17:29:57.579Z,2.30
2023-01-13T17:32:39.902Z,3.03
2023-01-13T17:35:31.618Z,4.20
2023-01-13T17:38:13.829Z,2.97
2023-01-13T17:41:01.635Z,3.80
2023-01-13T17:43:44.866Z,2.88
2023-01-13T17:46:33.619Z,3.17
2023-01-13T17:49:16.984Z,3.42
2023-01-13T17:52:04.705Z,2.80
2023-01-13T17:54:53.624Z,3.22
2023-01-13T17:57:36.163Z,2.67
2023-01-13T18:00:27.619Z,3.25
2023-01-13T18:03:11.108Z,3.10
2023-01-13T18:05:59.641Z,3.45
2023-01-13T18:08:41.747Z,4.85
2023-01-13T18:11:31.768Z,3.60
2023-01-13T18:14:14.144Z,3.22
2023-01-13T18:17:03.644Z,3.38
2023-01-13T18:20:09.599Z,4.07
2023-01-13T18:23:09.535Z,3.60
2023-01-13T18:26:30.599Z,3.20
2023-01-13T18:29:12.857Z,2.75
2023-01-13T18:32:02.590Z,2.90
2023-01-13T18:34:44.838Z,4.40
2023-01-13T18:37:33.641Z,4.78
2023-01-13T18:40:19.218Z,3.95
2023-01-13T18:43:06.889Z,3.05
2023-01-13T18:45:56.358Z,3.90
2023-01-13T18:48:40.304Z,3.88
2023-01-13T18:51:29.676Z,3.92
2023-01-13T18:54:11.604Z,3.83
2023-01-13T18:57:00.684Z,4.72
2023-01-13T18:59:48.691Z,3.65
2023-01-13T19:02:31.635Z,4.30
2023-01-13T19:05:21.627Z,3.63
2023-01-13T19:08:05.759Z,3.80
2023-01-13T19:10:54.601Z,3.60
2023-01-13T19:13:36.877Z,3.90
2023-01-13T19:16:26.677Z,4.20
2023-01-13T19:19:16.630Z,4.45
2023-01-13T19:22:00.097Z,2.83
2023-01-13T19:24:48.622Z,4.50
2023-01-13T19:27:30.802Z,3.80
2023-01-13T19:30:22.697Z,4.72
2023-01-13T19:33:04.523Z,4.00
2023-01-13T19:35:54.641Z,3.47
2023-01-13T19:38:38.596Z,6.43
2023-01-13T19:41:41.742Z,5.03
2023-01-13T19:44:47.691Z,4.43
2023-01-13T19:47:29.907Z,3.88
2023-01-13T19:50:19.741Z,3.63
2023-01-13T19:53:14.667Z,4.18
2023-01-13T19:56:04.685Z,4.63
2023-01-13T19:58:50.731Z,4.43
2023-01-13T20:01:42.711Z,4.72
2023-01-13T20:04:29.505Z,3.67
2023-01-13T20:07:20.668Z,4.88
2023-01-13T20:10:09.633Z,4.32
2023-01-13T20:12:55.869Z,5.30
2023-01-13T20:15:45.983Z,4.85
2023-01-13T20:18:32.587Z,3.58
2023-01-13T20:21:22.741Z,4.65
2023-01-13T20:24:04.761Z,4.82
2023-01-13T20:26:53.672Z,5.82
2023-01-13T20:29:41.222Z,4.72
2023-01-13T20:32:29.747Z,4.43
2023-01-13T20:35:19.716Z,5.05
2023-01-13T20:38:01.991Z,4.70
2023-01-13T20:40:50.728Z,4.30
2023-01-13T20:43:31.849Z,3.83
2023-01-13T20:46:21.748Z,4.75
2023-01-13T20:49:04.012Z,3.78
2023-01-13T20:51:52.641Z,3.90
2023-01-13T20:54:34.923Z,4.85
2023-01-13T20:57:23.640Z,3.60
2023-01-13T21:00:05.976Z,3.67
2023-01-13T21:02:55.663Z,4.03
2023-01-13T21:05:44.770Z,3.75
2023-01-13T21:08:26.702Z,3.78
2023-01-13T21:11:16.682Z,4.55
2023-01-13T21:14:15.772Z,3.70
2023-01-13T21:17:04.657Z,5.07
2023-01-13T21:19:50.474Z,4.57
2023-01-13T21:22:38.659Z,3.42
2023-01-13T21:25:21.214Z,3.33
2023-01-13T21:28:14.673Z,3.30
2023-01-13T21:31:09.730Z,4.25
2023-01-13T21:33:54.230Z,3.40
2023-01-13T21:36:43.701Z,4.88
2023-01-13T21:39:25.697Z,6.22
2023-01-13T21:42:31.670Z,4.47
2023-01-13T21:45:30.841Z,4.53
2023-01-13T21:48:19.831Z,3.50
2023-01-13T21:51:02.225Z,3.88
2023-01-13T21:53:51.775Z,3.97
2023-01-13T21:56:33.769Z,3.33
2023-01-13T21:59:22.770Z,4.45
2023-01-13T22:02:30.772Z,3.28
2023-01-13T22:05:15.940Z,4.75
2023-01-13T22:08:04.676Z,3.72
2023-01-13T22:10:58.524Z,3.83
2023-01-13T22:14:04.678Z,3.55
2023-01-13T22:16:50.171Z,4.05
2023-01-13T22:19:37.675Z,4.03
2023-01-13T22:22:26.749Z,4.45
2023-01-13T22:25:11.822Z,4.13
2023-01-13T22:28:09.730Z,3.92
2023-01-13T22:30:53.531Z,4.38
2023-01-13T22:33:42.733Z,3.10
2023-01-13T22:36:25.197Z,3.55
2023-01-13T22:39:13.694Z,3.72
2023-01-13T22:41:55.825Z,5.35
2023-01-13T22:44:46.697Z,4.22
2023-01-13T22:47:31.281Z,3.95
2023-01-13T22:50:20.936Z,3.72
2023-01-13T22:53:15.775Z,4.05
2023-01-13T22:55:58.693Z,4.13
2023-01-13T22:58:47.731Z,4.38
2023-01-13T23:01:32.934Z,3.05
2023-01-13T23:04:21.794Z,3.85
2023-01-13T23:07:03.532Z,3.20
2023-01-13T23:09:52.701Z,3.95
2023-01-13T23:12:34.663Z,3.67
2023-01-13T23:15:24.779Z,3.35
2023-01-13T23:18:14.779Z,3.05
2023-01-13T23:20:56.849Z,3.88
2023-01-13T23:23:45.708Z,2.92
2023-01-13T23:26:28.913Z,3.90
2023-01-13T23:29:20.733Z,2.35
2023-01-13T23:32:02.935Z,3.00
2023-01-13T23:34:52.672Z,3.08
2023-01-13T23:37:35.328Z,3.38
2023-01-13T23:40:22.698Z,2.80
2023-01-13T23:43:04.863Z,2.80
2023-01-13T23:45:52.716Z,3.95
2023-01-13T23:48:34.952Z,2.80
2023-01-13T23:51:24.719Z,2.75
2023-01-13T23:54:19.888Z,3.55
2023-01-13T23:57:01.792Z,2.65
2023-01-13T23:59:50.751Z,4.40
